sensor_id;sensor_type;location;lat;lon;timestamp;pressure;altitude;pressure_sealevel;temperature;humidity
14269;BME280;7218;51.480;7.006;2022-08-19T00:02:23;100541.25;;;22.83;89.65
14269;BME280;7218;51.480;7.006;2022-08-19T00:04:49;100543.94;;;22.69;90.02
14269;BME280;7218;51.480;7.006;2022-08-19T00:07:17;100544.47;;;22.61;90.20
14269;BME280;7218;51.480;7.006;2022-08-19T00:09:44;100549.94;;;22.72;89.91
14269;BME280;7218;51.480;7.006;2022-08-19T00:12:11;100551.66;;;22.73;90.04
14269;BME280;7218;51.480;7.006;2022-08-19T00:14:38;100550.13;;;22.69;90.27
14269;BME280;7218;51.480;7.006;2022-08-19T00:17:06;100557.31;;;22.67;90.21
14269;BME280;7218;51.480;7.006;2022-08-19T00:19:35;100553.25;;;22.62;90.24
14269;BME280;7218;51.480;7.006;2022-08-19T00:22:03;100558.38;;;22.65;90.34
14269;BME280;7218;51.480;7.006;2022-08-19T00:24:31;100550.59;;;22.62;90.42
14269;BME280;7218;51.480;7.006;2022-08-19T00:26:57;100552.22;;;22.64;90.24
14269;BME280;7218;51.480;7.006;2022-08-19T00:29:24;100546.25;;;22.61;90.87
14269;BME280;7218;51.480;7.006;2022-08-19T00:34:18;100555.19;;;22.60;90.34
14269;BME280;7218;51.480;7.006;2022-08-19T00:36:47;100542.63;;;22.62;90.55
14269;BME280;7218;51.480;7.006;2022-08-19T00:39:15;100543.28;;;22.65;89.99
14269;BME280;7218;51.480;7.006;2022-08-19T00:41:42;100542.91;;;22.57;90.77
14269;BME280;7218;51.480;7.006;2022-08-19T00:44:11;100544.53;;;22.60;91.06
14269;BME280;7218;51.480;7.006;2022-08-19T00:46:40;100544.25;;;22.64;90.56
14269;BME280;7218;51.480;7.006;2022-08-19T00:49:12;100539.22;;;22.60;90.63
14269;BME280;7218;51.480;7.006;2022-08-19T00:51:41;100547.75;;;22.65;90.67
14269;BME280;7218;51.480;7.006;2022-08-19T00:54:10;100543.53;;;22.48;90.94
14269;BME280;7218;51.480;7.006;2022-08-19T00:56:37;100542.09;;;22.43;91.59
14269;BME280;7218;51.480;7.006;2022-08-19T00:59:05;100538.03;;;22.51;91.66
14269;BME280;7218;51.480;7.006;2022-08-19T01:01:34;100537.38;;;22.33;92.37
14269;BME280;7218;51.480;7.006;2022-08-19T01:04:00;100535.59;;;22.34;92.66
14269;BME280;7218;51.480;7.006;2022-08-19T01:06:27;100536.22;;;22.38;92.40
14269;BME280;7218;51.480;7.006;2022-08-19T01:08:55;100533.53;;;22.25;92.70
14269;BME280;7218;51.480;7.006;2022-08-19T01:11:23;100536.75;;;22.30;92.04
14269;BME280;7218;51.480;7.006;2022-08-19T01:13:52;100526.53;;;22.37;91.96
14269;BME280;7218;51.480;7.006;2022-08-19T01:16:21;100531.69;;;22.40;91.72
14269;BME280;7218;51.480;7.006;2022-08-19T01:18:49;100532.84;;;22.36;92.04
14269;BME280;7218;51.480;7.006;2022-08-19T01:21:20;100536.25;;;22.23;92.71
14269;BME280;7218;51.480;7.006;2022-08-19T01:23:49;100539.97;;;22.21;92.29
14269;BME280;7218;51.480;7.006;2022-08-19T01:26:19;100543.50;;;22.21;92.20
14269;BME280;7218;51.480;7.006;2022-08-19T01:28:49;100545.66;;;22.29;91.89
14269;BME280;7218;51.480;7.006;2022-08-19T01:31:17;100538.19;;;22.21;92.81
14269;BME280;7218;51.480;7.006;2022-08-19T01:33:46;100541.22;;;22.15;93.24
14269;BME280;7218;51.480;7.006;2022-08-19T01:36:24;100543.03;;;22.15;92.63
14269;BME280;7218;51.480;7.006;2022-08-19T01:38:54;100534.22;;;22.00;93.96
14269;BME280;7218;51.480;7.006;2022-08-19T01:41:21;100531.84;;;22.10;92.90
14269;BME280;7218;51.480;7.006;2022-08-19T01:43:49;100536.19;;;22.11;93.11
14269;BME280;7218;51.480;7.006;2022-08-19T01:46:15;100533.03;;;22.18;92.67
14269;BME280;7218;51.480;7.006;2022-08-19T01:48:42;100525.09;;;22.04;93.88
14269;BME280;7218;51.480;7.006;2022-08-19T01:51:10;100534.78;;;22.05;93.30
14269;BME280;7218;51.480;7.006;2022-08-19T01:53:37;100533.34;;;22.00;94.10
14269;BME280;7218;51.480;7.006;2022-08-19T01:56:08;100534.38;;;21.97;93.70
14269;BME280;7218;51.480;7.006;2022-08-19T01:58:39;100538.59;;;22.01;93.60
14269;BME280;7218;51.480;7.006;2022-08-19T02:01:08;100537.44;;;22.05;93.56
14269;BME280;7218;51.480;7.006;2022-08-19T02:03:34;100541.63;;;21.95;93.74
14269;BME280;7218;51.480;7.006;2022-08-19T02:06:01;100533.72;;;21.94;93.99
14269;BME280;7218;51.480;7.006;2022-08-19T02:08:31;100528.09;;;21.84;94.52
14269;BME280;7218;51.480;7.006;2022-08-19T02:10:58;100524.50;;;21.85;94.45
14269;BME280;7218;51.480;7.006;2022-08-19T02:13:26;100525.81;;;21.92;94.24
14269;BME280;7218;51.480;7.006;2022-08-19T02:15:53;100519.41;;;21.96;93.83
14269;BME280;7218;51.480;7.006;2022-08-19T02:18:20;100519.84;;;21.88;94.01
14269;BME280;7218;51.480;7.006;2022-08-19T02:20:46;100523.66;;;21.84;94.09
14269;BME280;7218;51.480;7.006;2022-08-19T02:23:15;100523.00;;;21.81;94.43
14269;BME280;7218;51.480;7.006;2022-08-19T02:25:43;100526.19;;;21.72;95.18
14269;BME280;7218;51.480;7.006;2022-08-19T02:28:10;100527.53;;;21.79;94.23
14269;BME280;7218;51.480;7.006;2022-08-19T02:30:40;100524.97;;;21.77;94.69
14269;BME280;7218;51.480;7.006;2022-08-19T02:33:06;100535.50;;;21.65;95.32
14269;BME280;7218;51.480;7.006;2022-08-19T02:35:33;100538.16;;;21.65;95.61
14269;BME280;7218;51.480;7.006;2022-08-19T02:38:00;100539.56;;;21.56;94.98
14269;BME280;7218;51.480;7.006;2022-08-19T02:40:48;100538.44;;;21.60;95.15
14269;BME280;7218;51.480;7.006;2022-08-19T02:43:15;100536.16;;;21.68;94.70
14269;BME280;7218;51.480;7.006;2022-08-19T02:45:43;100534.34;;;21.69;94.50
14269;BME280;7218;51.480;7.006;2022-08-19T02:48:09;100536.63;;;21.61;94.92
14269;BME280;7218;51.480;7.006;2022-08-19T02:50:37;100529.91;;;21.55;95.06
14269;BME280;7218;51.480;7.006;2022-08-19T02:53:04;100538.72;;;21.56;95.24
14269;BME280;7218;51.480;7.006;2022-08-19T02:55:30;100538.59;;;21.57;95.08
14269;BME280;7218;51.480;7.006;2022-08-19T02:57:57;100537.66;;;21.58;95.06
14269;BME280;7218;51.480;7.006;2022-08-19T03:00:25;100538.72;;;21.56;95.57
14269;BME280;7218;51.480;7.006;2022-08-19T03:02:53;100545.75;;;21.57;95.28
14269;BME280;7218;51.480;7.006;2022-08-19T03:05:21;100536.34;;;21.51;95.09
14269;BME280;7218;51.480;7.006;2022-08-19T03:07:47;100538.78;;;21.40;96.78
14269;BME280;7218;51.480;7.006;2022-08-19T03:10:14;100541.94;;;21.46;96.17
14269;BME280;7218;51.480;7.006;2022-08-19T03:12:40;100537.00;;;21.55;95.04
14269;BME280;7218;51.480;7.006;2022-08-19T03:15:08;100536.56;;;21.32;96.37
14269;BME280;7218;51.480;7.006;2022-08-19T03:17:35;100537.72;;;21.42;96.06
14269;BME280;7218;51.480;7.006;2022-08-19T03:20:04;100533.13;;;21.46;95.84
14269;BME280;7218;51.480;7.006;2022-08-19T03:22:30;100535.84;;;21.44;96.05
14269;BME280;7218;51.480;7.006;2022-08-19T03:24:58;100532.97;;;21.33;96.99
14269;BME280;7218;51.480;7.006;2022-08-19T03:27:24;100536.69;;;21.31;96.81
14269;BME280;7218;51.480;7.006;2022-08-19T03:29:51;100535.53;;;21.21;96.68
14269;BME280;7218;51.480;7.006;2022-08-19T03:32:17;100534.59;;;21.36;96.21
14269;BME280;7218;51.480;7.006;2022-08-19T03:34:44;100537.53;;;21.31;96.63
14269;BME280;7218;51.480;7.006;2022-08-19T03:37:12;100540.78;;;21.36;96.15
14269;BME280;7218;51.480;7.006;2022-08-19T03:39:40;100539.06;;;21.35;96.32
14269;BME280;7218;51.480;7.006;2022-08-19T03:42:07;100535.75;;;21.46;95.64
14269;BME280;7218;51.480;7.006;2022-08-19T03:44:34;100538.31;;;21.47;95.58
14269;BME280;7218;51.480;7.006;2022-08-19T03:47:01;100536.50;;;21.48;95.50
14269;BME280;7218;51.480;7.006;2022-08-19T03:49:30;100535.94;;;21.43;95.24
14269;BME280;7218;51.480;7.006;2022-08-19T03:51:58;100534.22;;;21.42;95.30
14269;BME280;7218;51.480;7.006;2022-08-19T03:54:28;100534.34;;;21.40;95.84
14269;BME280;7218;51.480;7.006;2022-08-19T03:56:56;100539.63;;;21.40;95.46
14269;BME280;7218;51.480;7.006;2022-08-19T03:59:24;100533.13;;;21.46;95.00
14269;BME280;7218;51.480;7.006;2022-08-19T04:01:51;100533.56;;;21.38;95.92
14269;BME280;7218;51.480;7.006;2022-08-19T04:04:18;100538.41;;;21.46;95.28
14269;BME280;7218;51.480;7.006;2022-08-19T04:06:45;100547.19;;;21.32;96.00
14269;BME280;7218;51.480;7.006;2022-08-19T04:09:12;100541.50;;;21.38;96.10
14269;BME280;7218;51.480;7.006;2022-08-19T04:11:42;100551.84;;;21.43;95.81
14269;BME280;7218;51.480;7.006;2022-08-19T04:14:10;100544.44;;;21.34;96.63
14269;BME280;7218;51.480;7.006;2022-08-19T04:16:37;100541.72;;;21.35;96.46
14269;BME280;7218;51.480;7.006;2022-08-19T04:19:05;100535.06;;;21.28;96.80
14269;BME280;7218;51.480;7.006;2022-08-19T04:21:32;100535.31;;;21.24;97.02
14269;BME280;7218;51.480;7.006;2022-08-19T04:23:59;100539.03;;;21.21;96.77
14269;BME280;7218;51.480;7.006;2022-08-19T04:26:28;100536.31;;;21.37;96.63
14269;BME280;7218;51.480;7.006;2022-08-19T04:28:58;100537.94;;;21.39;96.09
14269;BME280;7218;51.480;7.006;2022-08-19T04:31:27;100540.50;;;21.41;96.07
14269;BME280;7218;51.480;7.006;2022-08-19T04:33:55;100537.94;;;21.39;96.57
14269;BME280;7218;51.480;7.006;2022-08-19T04:36:23;100545.88;;;21.39;96.28
14269;BME280;7218;51.480;7.006;2022-08-19T04:38:54;100551.97;;;21.41;95.88
14269;BME280;7218;51.480;7.006;2022-08-19T04:41:21;100554.03;;;21.36;96.26
14269;BME280;7218;51.480;7.006;2022-08-19T04:44:06;100558.22;;;21.40;95.69
14269;BME280;7218;51.480;7.006;2022-08-19T04:46:33;100554.03;;;21.36;96.00
14269;BME280;7218;51.480;7.006;2022-08-19T04:49:00;100554.19;;;21.33;95.98
14269;BME280;7218;51.480;7.006;2022-08-19T04:51:27;100554.78;;;21.38;96.00
14269;BME280;7218;51.480;7.006;2022-08-19T04:53:56;100552.47;;;21.32;96.87
14269;BME280;7218;51.480;7.006;2022-08-19T04:56:24;100551.09;;;21.41;95.96
14269;BME280;7218;51.480;7.006;2022-08-19T04:58:52;100557.06;;;21.44;95.67
14269;BME280;7218;51.480;7.006;2022-08-19T05:01:22;100556.41;;;21.41;95.85
14269;BME280;7218;51.480;7.006;2022-08-19T05:03:49;100561.34;;;21.47;95.76
14269;BME280;7218;51.480;7.006;2022-08-19T05:06:17;100568.06;;;21.53;95.71
14269;BME280;7218;51.480;7.006;2022-08-19T05:08:45;100563.47;;;21.56;95.29
14269;BME280;7218;51.480;7.006;2022-08-19T05:11:14;100573.78;;;21.61;95.49
14269;BME280;7218;51.480;7.006;2022-08-19T05:13:41;100579.84;;;21.63;95.19
14269;BME280;7218;51.480;7.006;2022-08-19T05:16:09;100577.50;;;21.72;94.83
14269;BME280;7218;51.480;7.006;2022-08-19T05:18:38;100581.78;;;21.75;94.91
14269;BME280;7218;51.480;7.006;2022-08-19T05:21:23;100580.56;;;21.80;94.96
14269;BME280;7218;51.480;7.006;2022-08-19T05:24:07;100583.25;;;21.95;94.53
14269;BME280;7218;51.480;7.006;2022-08-19T05:26:34;100586.88;;;21.92;94.76
14269;BME280;7218;51.480;7.006;2022-08-19T05:29:01;100584.59;;;22.02;94.38
14269;BME280;7218;51.480;7.006;2022-08-19T05:31:28;100586.97;;;22.06;93.73
14269;BME280;7218;51.480;7.006;2022-08-19T05:33:56;100586.19;;;22.18;93.63
14269;BME280;7218;51.480;7.006;2022-08-19T05:36:23;100593.28;;;22.18;93.38
14269;BME280;7218;51.480;7.006;2022-08-19T05:38:50;100594.53;;;22.26;93.12
14269;BME280;7218;51.480;7.006;2022-08-19T05:41:19;100598.59;;;22.32;93.22
14269;BME280;7218;51.480;7.006;2022-08-19T05:43:46;100600.88;;;22.38;92.82
14269;BME280;7218;51.480;7.006;2022-08-19T05:46:16;100595.09;;;22.46;92.53
14269;BME280;7218;51.480;7.006;2022-08-19T05:48:43;100597.19;;;22.41;91.84
14269;BME280;7218;51.480;7.006;2022-08-19T05:51:11;100588.91;;;22.45;91.56
14269;BME280;7218;51.480;7.006;2022-08-19T05:53:38;100595.16;;;22.44;91.85
14269;BME280;7218;51.480;7.006;2022-08-19T05:56:05;100599.16;;;22.51;92.14
14269;BME280;7218;51.480;7.006;2022-08-19T05:58:32;100603.97;;;22.59;91.43
14269;BME280;7218;51.480;7.006;2022-08-19T06:00:59;100591.16;;;22.65;91.19
14269;BME280;7218;51.480;7.006;2022-08-19T06:03:29;100593.81;;;22.65;91.08
14269;BME280;7218;51.480;7.006;2022-08-19T06:05:56;100579.44;;;22.68;91.54
14269;BME280;7218;51.480;7.006;2022-08-19T06:08:25;100578.69;;;22.80;91.02
14269;BME280;7218;51.480;7.006;2022-08-19T06:10:55;100577.16;;;22.90;91.04
14269;BME280;7218;51.480;7.006;2022-08-19T06:13:22;100582.81;;;22.98;90.50
14269;BME280;7218;51.480;7.006;2022-08-19T06:15:49;100587.47;;;22.95;91.29
14269;BME280;7218;51.480;7.006;2022-08-19T06:18:16;100587.53;;;22.66;92.77
14269;BME280;7218;51.480;7.006;2022-08-19T06:20:42;100585.16;;;22.62;93.05
14269;BME280;7218;51.480;7.006;2022-08-19T06:23:09;100579.00;;;22.76;92.40
14269;BME280;7218;51.480;7.006;2022-08-19T06:25:38;100586.59;;;22.53;94.44
14269;BME280;7218;51.480;7.006;2022-08-19T06:28:05;100586.22;;;22.59;93.77
14269;BME280;7218;51.480;7.006;2022-08-19T06:30:31;100597.81;;;22.58;94.20
14269;BME280;7218;51.480;7.006;2022-08-19T06:32:58;100591.22;;;22.78;92.92
14269;BME280;7218;51.480;7.006;2022-08-19T06:35:24;100594.97;;;22.76;93.17
14269;BME280;7218;51.480;7.006;2022-08-19T06:37:52;100597.16;;;22.55;94.79
14269;BME280;7218;51.480;7.006;2022-08-19T06:40:19;100589.44;;;22.64;94.40
14269;BME280;7218;51.480;7.006;2022-08-19T06:42:47;100592.03;;;22.38;95.98
14269;BME280;7218;51.480;7.006;2022-08-19T06:45:14;100579.88;;;22.48;95.70
14269;BME280;7218;51.480;7.006;2022-08-19T06:47:40;100583.09;;;22.53;95.71
14269;BME280;7218;51.480;7.006;2022-08-19T06:50:13;100590.13;;;22.54;95.64
14269;BME280;7218;51.480;7.006;2022-08-19T06:52:40;100596.22;;;22.56;94.77
14269;BME280;7218;51.480;7.006;2022-08-19T06:55:07;100595.09;;;22.46;96.19
14269;BME280;7218;51.480;7.006;2022-08-19T06:57:33;100592.22;;;22.49;95.62
14269;BME280;7218;51.480;7.006;2022-08-19T07:00:02;100595.28;;;22.14;97.99
14269;BME280;7218;51.480;7.006;2022-08-19T07:02:29;100586.63;;;22.39;96.65
14269;BME280;7218;51.480;7.006;2022-08-19T07:04:55;100590.34;;;22.22;97.67
14269;BME280;7218;51.480;7.006;2022-08-19T07:07:23;100583.91;;;22.82;94.86
14269;BME280;7218;51.480;7.006;2022-08-19T07:09:51;100599.66;;;22.15;97.81
14269;BME280;7218;51.480;7.006;2022-08-19T07:12:18;100591.78;;;22.69;95.35
14269;BME280;7218;51.480;7.006;2022-08-19T07:14:45;100590.69;;;23.00;93.91
14269;BME280;7218;51.480;7.006;2022-08-19T07:17:13;100585.63;;;23.09;93.07
14269;BME280;7218;51.480;7.006;2022-08-19T07:19:40;100586.31;;;23.26;91.95
14269;BME280;7218;51.480;7.006;2022-08-19T07:22:08;100589.28;;;23.21;92.39
14269;BME280;7218;51.480;7.006;2022-08-19T07:24:35;100588.34;;;23.35;91.61
14269;BME280;7218;51.480;7.006;2022-08-19T07:27:04;100601.28;;;23.27;91.93
14269;BME280;7218;51.480;7.006;2022-08-19T07:29:33;100598.63;;;23.66;90.17
14269;BME280;7218;51.480;7.006;2022-08-19T07:32:02;100612.06;;;23.77;89.32
14269;BME280;7218;51.480;7.006;2022-08-19T07:34:31;100610.53;;;23.48;91.36
14269;BME280;7218;51.480;7.006;2022-08-19T07:36:59;100617.09;;;23.69;90.39
14269;BME280;7218;51.480;7.006;2022-08-19T07:39:28;100622.47;;;23.15;92.28
14269;BME280;7218;51.480;7.006;2022-08-19T07:41:57;100632.09;;;23.31;92.35
14269;BME280;7218;51.480;7.006;2022-08-19T07:44:24;100628.88;;;23.26;93.08
14269;BME280;7218;51.480;7.006;2022-08-19T07:46:53;100633.75;;;23.19;93.62
14269;BME280;7218;51.480;7.006;2022-08-19T07:49:21;100629.44;;;23.04;94.14
14269;BME280;7218;51.480;7.006;2022-08-19T07:51:52;100641.28;;;23.39;92.03
14269;BME280;7218;51.480;7.006;2022-08-19T07:54:20;100641.06;;;23.69;90.59
14269;BME280;7218;51.480;7.006;2022-08-19T07:56:47;100638.16;;;23.72;89.95
14269;BME280;7218;51.480;7.006;2022-08-19T07:59:14;100648.84;;;23.97;88.88
14269;BME280;7218;51.480;7.006;2022-08-19T08:01:42;100659.59;;;23.44;92.04
14269;BME280;7218;51.480;7.006;2022-08-19T08:04:10;100658.69;;;23.45;92.52
14269;BME280;7218;51.480;7.006;2022-08-19T08:06:55;100655.03;;;23.98;89.19
14269;BME280;7218;51.480;7.006;2022-08-19T08:09:42;100655.63;;;23.64;90.87
14269;BME280;7218;51.480;7.006;2022-08-19T08:12:11;100658.00;;;23.93;90.14
14269;BME280;7218;51.480;7.006;2022-08-19T08:14:40;100660.81;;;24.17;88.81
14269;BME280;7218;51.480;7.006;2022-08-19T08:17:07;100664.88;;;24.23;88.66
14269;BME280;7218;51.480;7.006;2022-08-19T08:19:35;100656.22;;;24.32;88.10
14269;BME280;7218;51.480;7.006;2022-08-19T08:22:03;100658.47;;;24.00;89.12
14269;BME280;7218;51.480;7.006;2022-08-19T08:24:31;100660.81;;;24.17;89.01
14269;BME280;7218;51.480;7.006;2022-08-19T08:26:59;100654.38;;;24.70;85.35
14269;BME280;7218;51.480;7.006;2022-08-19T08:29:27;100671.44;;;24.80;85.22
14269;BME280;7218;51.480;7.006;2022-08-19T08:31:55;100669.06;;;25.25;83.17
14269;BME280;7218;51.480;7.006;2022-08-19T08:34:22;100662.19;;;25.57;80.83
14269;BME280;7218;51.480;7.006;2022-08-19T08:36:48;100664.66;;;25.71;79.83
14269;BME280;7218;51.480;7.006;2022-08-19T08:39:20;100662.56;;;26.10;77.34
14269;BME280;7218;51.480;7.006;2022-08-19T08:41:51;100666.91;;;26.11;76.12
14269;BME280;7218;51.480;7.006;2022-08-19T08:44:22;100674.31;;;25.61;79.02
14269;BME280;7218;51.480;7.006;2022-08-19T08:46:51;100657.69;;;26.04;77.68
14269;BME280;7218;51.480;7.006;2022-08-19T08:49:29;100664.94;;;25.80;77.31
14269;BME280;7218;51.480;7.006;2022-08-19T08:52:02;100665.38;;;26.20;74.31
14269;BME280;7218;51.480;7.006;2022-08-19T08:54:34;100665.22;;;26.21;74.73
14269;BME280;7218;51.480;7.006;2022-08-19T08:57:04;100666.44;;;26.17;73.32
14269;BME280;7218;51.480;7.006;2022-08-19T08:59:35;100660.72;;;25.99;72.67
14269;BME280;7218;51.480;7.006;2022-08-19T09:02:02;100667.72;;;26.46;70.82
14269;BME280;7218;51.480;7.006;2022-08-19T09:04:29;100668.06;;;26.20;71.53
14269;BME280;7218;51.480;7.006;2022-08-19T09:07:12;100661.88;;;26.30;71.33
14269;BME280;7218;51.480;7.006;2022-08-19T09:09:46;100663.34;;;26.34;70.96
14269;BME280;7218;51.480;7.006;2022-08-19T09:12:21;100669.75;;;26.76;68.70
14269;BME280;7218;51.480;7.006;2022-08-19T09:14:53;100654.81;;;26.74;68.15
14269;BME280;7218;51.480;7.006;2022-08-19T09:17:25;100665.28;;;26.66;67.85
14269;BME280;7218;51.480;7.006;2022-08-19T09:19:58;100658.22;;;26.76;67.87
14269;BME280;7218;51.480;7.006;2022-08-19T09:22:29;100652.13;;;26.96;66.73
14269;BME280;7218;51.480;7.006;2022-08-19T09:24:57;100659.22;;;26.64;69.14
14269;BME280;7218;51.480;7.006;2022-08-19T09:27:25;100659.44;;;26.83;66.99
14269;BME280;7218;51.480;7.006;2022-08-19T09:29:52;100661.75;;;26.87;66.09
14269;BME280;7218;51.480;7.006;2022-08-19T09:32:19;100663.88;;;27.16;64.65
14269;BME280;7218;51.480;7.006;2022-08-19T09:34:46;100666.59;;;27.36;62.92
14269;BME280;7218;51.480;7.006;2022-08-19T09:37:13;100660.13;;;27.50;59.09
14269;BME280;7218;51.480;7.006;2022-08-19T09:39:40;100664.97;;;27.56;59.13
14269;BME280;7218;51.480;7.006;2022-08-19T09:42:09;100658.34;;;27.92;58.35
14269;BME280;7218;51.480;7.006;2022-08-19T09:44:37;100655.13;;;27.46;60.21
14269;BME280;7218;51.480;7.006;2022-08-19T09:47:04;100652.56;;;27.97;57.75
14269;BME280;7218;51.480;7.006;2022-08-19T09:49:30;100656.09;;;28.39;57.46
14269;BME280;7218;51.480;7.006;2022-08-19T09:51:57;100658.56;;;28.61;56.35
14269;BME280;7218;51.480;7.006;2022-08-19T09:54:23;100653.13;;;28.42;56.25
14269;BME280;7218;51.480;7.006;2022-08-19T09:56:50;100658.03;;;28.67;55.36
14269;BME280;7218;51.480;7.006;2022-08-19T09:59:18;100655.69;;;28.74;54.18
14269;BME280;7218;51.480;7.006;2022-08-19T10:01:44;100655.03;;;29.00;52.95
14269;BME280;7218;51.480;7.006;2022-08-19T10:04:11;100659.56;;;28.69;53.92
14269;BME280;7218;51.480;7.006;2022-08-19T10:06:39;100649.63;;;28.81;53.33
14269;BME280;7218;51.480;7.006;2022-08-19T10:09:08;100648.72;;;28.41;55.09
14269;BME280;7218;51.480;7.006;2022-08-19T10:11:36;100657.63;;;28.41;54.59
14269;BME280;7218;51.480;7.006;2022-08-19T10:14:06;100655.63;;;28.34;55.46
14269;BME280;7218;51.480;7.006;2022-08-19T10:16:36;100658.00;;;28.57;54.80
14269;BME280;7218;51.480;7.006;2022-08-19T10:19:04;100657.66;;;28.81;53.90
14269;BME280;7218;51.480;7.006;2022-08-19T10:21:32;100653.22;;;29.30;51.85
14269;BME280;7218;51.480;7.006;2022-08-19T10:24:02;100647.91;;;29.68;50.90
14269;BME280;7218;51.480;7.006;2022-08-19T10:26:31;100644.59;;;29.84;49.46
14269;BME280;7218;51.480;7.006;2022-08-19T10:28:59;100642.63;;;29.86;49.34
14269;BME280;7218;51.480;7.006;2022-08-19T10:31:28;100645.44;;;29.27;52.37
14269;BME280;7218;51.480;7.006;2022-08-19T10:33:56;100644.06;;;29.71;50.97
14269;BME280;7218;51.480;7.006;2022-08-19T10:36:25;100643.31;;;28.61;54.36
14269;BME280;7218;51.480;7.006;2022-08-19T10:38:54;100643.19;;;29.03;52.61
14269;BME280;7218;51.480;7.006;2022-08-19T10:41:24;100642.47;;;28.61;53.31
14269;BME280;7218;51.480;7.006;2022-08-19T10:43:51;100649.81;;;28.59;53.69
14269;BME280;7218;51.480;7.006;2022-08-19T10:46:21;100648.50;;;28.74;54.34
14269;BME280;7218;51.480;7.006;2022-08-19T10:48:48;100646.56;;;29.15;51.67
14269;BME280;7218;51.480;7.006;2022-08-19T10:51:17;100637.56;;;29.54;50.08
14269;BME280;7218;51.480;7.006;2022-08-19T10:54:02;100638.38;;;30.03;48.44
14269;BME280;7218;51.480;7.006;2022-08-19T10:56:29;100638.00;;;30.25;47.73
14269;BME280;7218;51.480;7.006;2022-08-19T10:59:16;100641.41;;;30.91;45.28
14269;BME280;7218;51.480;7.006;2022-08-19T11:01:44;100639.88;;;30.61;46.01
14269;BME280;7218;51.480;7.006;2022-08-19T11:04:11;100638.22;;;29.94;47.40
14269;BME280;7218;51.480;7.006;2022-08-19T11:06:40;100642.09;;;29.54;47.76
14269;BME280;7218;51.480;7.006;2022-08-19T11:09:09;100636.59;;;30.21;46.55
14269;BME280;7218;51.480;7.006;2022-08-19T11:11:36;100636.59;;;31.30;45.78
14269;BME280;7218;51.480;7.006;2022-08-19T11:14:05;100647.69;;;31.45;43.78
14269;BME280;7218;51.480;7.006;2022-08-19T11:16:32;100650.78;;;31.32;43.33
14269;BME280;7218;51.480;7.006;2022-08-19T11:18:59;100646.22;;;31.50;43.52
14269;BME280;7218;51.480;7.006;2022-08-19T11:21:28;100643.31;;;33.15;40.65
14269;BME280;7218;51.480;7.006;2022-08-19T11:24:00;100641.84;;;33.28;39.34
14269;BME280;7218;51.480;7.006;2022-08-19T11:26:27;100648.78;;;33.39;38.84
14269;BME280;7218;51.480;7.006;2022-08-19T11:28:54;100651.31;;;33.65;38.08
14269;BME280;7218;51.480;7.006;2022-08-19T11:31:23;100647.59;;;32.67;39.22
14269;BME280;7218;51.480;7.006;2022-08-19T11:33:49;100653.56;;;31.40;41.03
14269;BME280;7218;51.480;7.006;2022-08-19T11:36:19;100655.47;;;30.85;41.47
14269;BME280;7218;51.480;7.006;2022-08-19T11:38:47;100647.16;;;31.06;40.52
14269;BME280;7218;51.480;7.006;2022-08-19T11:41:16;100639.50;;;32.41;39.58
14269;BME280;7218;51.480;7.006;2022-08-19T11:43:43;100639.97;;;30.32;41.08
14269;BME280;7218;51.480;7.006;2022-08-19T11:46:12;100635.84;;;30.38;41.54
14269;BME280;7218;51.480;7.006;2022-08-19T11:48:39;100640.06;;;31.40;39.40
14269;BME280;7218;51.480;7.006;2022-08-19T11:51:08;100637.38;;;29.84;41.94
14269;BME280;7218;51.480;7.006;2022-08-19T11:53:35;100629.88;;;29.01;43.44
14269;BME280;7218;51.480;7.006;2022-08-19T11:56:03;100628.25;;;29.48;42.25
14269;BME280;7218;51.480;7.006;2022-08-19T11:58:31;100617.56;;;31.14;40.43
14269;BME280;7218;51.480;7.006;2022-08-19T12:00:58;100629.59;;;31.55;39.03
14269;BME280;7218;51.480;7.006;2022-08-19T12:03:24;100635.28;;;29.59;42.76
14269;BME280;7218;51.480;7.006;2022-08-19T12:05:51;100623.72;;;29.59;42.57
14269;BME280;7218;51.480;7.006;2022-08-19T12:08:18;100627.22;;;28.71;45.23
14269;BME280;7218;51.480;7.006;2022-08-19T12:10:45;100618.75;;;29.44;44.14
14269;BME280;7218;51.480;7.006;2022-08-19T12:13:12;100622.56;;;31.09;40.99
14269;BME280;7218;51.480;7.006;2022-08-19T12:15:42;100615.09;;;32.17;38.39
14269;BME280;7218;51.480;7.006;2022-08-19T12:18:10;100622.66;;;31.52;38.26
14269;BME280;7218;51.480;7.006;2022-08-19T12:20:40;100618.91;;;31.89;36.56
14269;BME280;7218;51.480;7.006;2022-08-19T12:23:07;100623.09;;;33.27;35.02
14269;BME280;7218;51.480;7.006;2022-08-19T12:25:35;100613.28;;;33.34;35.18
14269;BME280;7218;51.480;7.006;2022-08-19T12:28:03;100603.41;;;34.14;33.34
14269;BME280;7218;51.480;7.006;2022-08-19T12:30:29;100604.13;;;34.55;32.69
14269;BME280;7218;51.480;7.006;2022-08-19T12:32:57;100606.00;;;35.39;31.39
14269;BME280;7218;51.480;7.006;2022-08-19T12:35:24;100607.13;;;34.99;32.15
14269;BME280;7218;51.480;7.006;2022-08-19T12:37:50;100604.88;;;35.03;32.22
14269;BME280;7218;51.480;7.006;2022-08-19T12:40:17;100602.78;;;33.63;34.05
14269;BME280;7218;51.480;7.006;2022-08-19T12:42:44;100612.53;;;34.99;31.94
14269;BME280;7218;51.480;7.006;2022-08-19T12:45:12;100604.78;;;34.18;32.92
14269;BME280;7218;51.480;7.006;2022-08-19T12:47:39;100605.28;;;35.82;31.67
14269;BME280;7218;51.480;7.006;2022-08-19T12:50:07;100611.28;;;33.77;32.93
14269;BME280;7218;51.480;7.006;2022-08-19T12:52:35;100617.75;;;32.93;34.47
14269;BME280;7218;51.480;7.006;2022-08-19T12:55:05;100606.38;;;32.65;34.80
14269;BME280;7218;51.480;7.006;2022-08-19T12:57:32;100609.94;;;34.44;32.57
14269;BME280;7218;51.480;7.006;2022-08-19T13:00:04;100600.69;;;36.35;28.94
14269;BME280;7218;51.480;7.006;2022-08-19T13:02:35;100614.97;;;36.00;29.33
14269;BME280;7218;51.480;7.006;2022-08-19T13:05:01;100605.09;;;34.70;30.77
14269;BME280;7218;51.480;7.006;2022-08-19T13:07:31;100613.91;;;34.17;32.18
14269;BME280;7218;51.480;7.006;2022-08-19T13:09:58;100597.81;;;34.15;31.93